Terminal Aerodrome Forecast
Issued by NWS

Home | Current Version | Previous Version | Text Only | Print | Product List | Glossary On
Versions: 1 2 3 4 5 6 7 8 9 10 11 12 13 14 15 16 17 18 19 20 21
000
FTUS46 KOTX 301141 CCA
TAFMWH
TAF COR
KMWH 301141Z 3012/3112 36008KT 6SM BR VCSH SCT008 OVC070
     FM301600 02007KT P6SM -RA SCT020 OVC060
     FM310000 03006KT P6SM SCT090=

USA.gov is the U.S. government's official web portal to all federal, state and local government web resources and services.